Time;durP1;ratioP1;P1;durP2;ratioP2;P2;SDS_P1;SDS_P2;PMS_P1;PMS_P2;Temp;Humidity;BMP_temperature;BMP_pressure;BME280_temperature;BME280_humidity;BME280_pressure;Samples;Min_cycle;Max_cycle;Signal;HPM_P1;HPM_P2
2021/12/28 00:02:09;;;;;;;45.3;54.6;;;;;;;-4.5;79.1;98230;;;;
2021/12/28 00:13:09;;;;;;;45.3;54.6;;;;;;;-4.6;79.4;98230;;;;
2021/12/28 00:23:09;;;;;;;45.3;54.6;;;;;;;-4.6;79.6;98230;;;;
2021/12/28 00:33:09;;;;;;;43.5;55.8;;;;;;;-4.4;79.3;98220;;;;
2021/12/28 00:44:09;;;;;;;43.5;55.8;;;;;;;-4.4;79.3;98220;;;;
2021/12/28 00:54:09;;;;;;;43.5;55.8;;;;;;;-4.2;79.1;98230;;;;
2021/12/28 01:04:09;;;;;;;46.6;54.4;;;;;;;-4.2;79;98230;;;;
2021/12/28 01:14:09;;;;;;;46.6;54.4;;;;;;;-4.3;79.3;98230;;;;
2021/12/28 01:24:09;;;;;;;46.6;54.4;;;;;;;-4.2;78.8;98220;;;;
2021/12/28 01:35:09;;;;;;;44.3;60;;;;;;;-4.3;79.5;98200;;;;
2021/12/28 01:46:09;;;;;;;44.3;60;;;;;;;-4.2;79.3;98180;;;;
2021/12/28 01:56:09;;;;;;;44.7;56;;;;;;;-4.3;79.3;98160;;;;
2021/12/28 02:06:09;;;;;;;44.7;56;;;;;;;-4.3;79.4;98160;;;;
2021/12/28 02:17:09;;;;;;;44.7;56;;;;;;;-4.5;79.3;98170;;;;
2021/12/28 02:27:09;;;;;;;46.9;63;;;;;;;-4.3;79;98170;;;;
2021/12/28 02:38:09;;;;;;;46.9;63;;;;;;;-4.5;79.2;98170;;;;
2021/12/28 02:48:09;;;;;;;46.9;63;;;;;;;-4.5;79.3;98160;;;;
2021/12/28 02:58:09;;;;;;;45;54.9;;;;;;;-4.4;79.3;98140;;;;
2021/12/28 03:09:09;;;;;;;45;54.9;;;;;;;-4.4;79.1;98140;;;;
2021/12/28 03:19:09;;;;;;;45;54.9;;;;;;;-4.5;78.6;98130;;;;
2021/12/28 03:29:09;;;;;;;43.6;56.5;;;;;;;-4.7;79;98140;;;;
2021/12/28 03:39:09;;;;;;;43.6;56.5;;;;;;;-4.7;79.1;98120;;;;
2021/12/28 03:50:09;;;;;;;43.6;56.5;;;;;;;-4.7;79.5;98120;;;;
2021/12/28 04:00:09;;;;;;;41.6;51.4;;;;;;;-4.9;80;98120;;;;
2021/12/28 04:10:10;;;;;;;41.6;51.4;;;;;;;-4.8;80.2;98130;;;;
2021/12/28 04:21:09;;;;;;;41.6;51.4;;;;;;;-4.8;80.2;98120;;;;
2021/12/28 04:32:09;;;;;;;44.1;60.1;;;;;;;-4.6;80.2;98120;;;;
2021/12/28 04:42:09;;;;;;;44.1;60.1;;;;;;;-4.7;80.5;98120;;;;
2021/12/28 04:52:09;;;;;;;44.1;60.1;;;;;;;-4.5;80.2;98120;;;;
2021/12/28 05:02:09;;;;;;;40.3;50.6;;;;;;;-4.5;80.3;98120;;;;
2021/12/28 05:12:09;;;;;;;40.3;50.6;;;;;;;-4.7;80.4;98120;;;;
2021/12/28 05:23:09;;;;;;;40.3;50.6;;;;;;;-4.6;80.2;98120;;;;
2021/12/28 05:33:09;;;;;;;39.5;53;;;;;;;-4.6;80.6;98130;;;;
2021/12/28 05:43:09;;;;;;;39.5;53;;;;;;;-4.5;80.5;98110;;;;
2021/12/28 05:54:09;;;;;;;39.5;53;;;;;;;-4.5;80.5;98120;;;;
2021/12/28 06:04:09;;;;;;;36.3;44.3;;;;;;;-4.4;80.2;98120;;;;
2021/12/28 06:15:09;;;;;;;36.3;44.3;;;;;;;-4.5;80.5;98110;;;;
2021/12/28 06:25:09;;;;;;;33.4;39.4;;;;;;;-4.5;80.7;98120;;;;
2021/12/28 06:35:09;;;;;;;33.4;39.4;;;;;;;-4.5;80.7;98110;;;;
2021/12/28 06:46:09;;;;;;;33.4;39.4;;;;;;;-4.5;80.3;98130;;;;
2021/12/28 06:56:09;;;;;;;33.6;40.9;;;;;;;-4.5;80.5;98120;;;;
2021/12/28 07:07:09;;;;;;;33.6;40.9;;;;;;;-4.5;80.3;98120;;;;
2021/12/28 07:17:09;;;;;;;33.6;40.9;;;;;;;-4.4;80.1;98130;;;;
2021/12/28 07:27:09;;;;;;;35.4;44.9;;;;;;;-4.4;79.8;98130;;;;
2021/12/28 07:37:09;;;;;;;35.4;44.9;;;;;;;-4.3;79.2;98140;;;;
2021/12/28 07:47:09;;;;;;;35.4;44.9;;;;;;;-4.5;79.6;98150;;;;
2021/12/28 07:58:09;;;;;;;38;45.6;;;;;;;-4.2;78.8;98140;;;;
2021/12/28 08:09:09;;;;;;;38;45.6;;;;;;;-4;78.2;98130;;;;
2021/12/28 08:19:09;;;;;;;38;45.6;;;;;;;-3.9;77.4;98140;;;;
2021/12/28 08:30:09;;;;;;;32.9;41.3;;;;;;;-3.9;77.4;98130;;;;
2021/12/28 08:40:09;;;;;;;32.9;41.3;;;;;;;-4;77.1;98120;;;;
2021/12/28 08:51:09;;;;;;;32.9;41.3;;;;;;;-4.1;77.6;98090;;;;
2021/12/28 09:01:09;;;;;;;38.2;51;;;;;;;-3.9;76.9;98100;;;;
2021/12/28 09:11:09;;;;;;;38.2;51;;;;;;;-3.6;76.4;98100;;;;
2021/12/28 09:22:10;;;;;;;38.2;51;;;;;;;-3.7;76.5;98100;;;;
2021/12/28 09:32:09;;;;;;;34.7;41.8;;;;;;;-3.5;76.2;98100;;;;
2021/12/28 09:42:09;;;;;;;34.7;41.8;;;;;;;-3.4;76.4;98110;;;;
2021/12/28 09:52:09;;;;;;;34.7;41.8;;;;;;;-2.8;75.5;98110;;;;
2021/12/28 10:02:10;;;;;;;34.2;42;;;;;;;-2.5;73.8;98080;;;;
2021/12/28 10:12:09;;;;;;;34.2;42;;;;;;;-2.6;73.5;98050;;;;
2021/12/28 10:23:10;;;;;;;34.2;42;;;;;;;-3;74.7;98020;;;;
2021/12/28 10:33:09;;;;;;;34.5;39.8;;;;;;;-2.7;74.2;98020;;;;
2021/12/28 10:44:09;;;;;;;34.5;39.8;;;;;;;-2.2;73.4;98040;;;;
2021/12/28 10:55:10;;;;;;;32.8;40.6;;;;;;;-1.7;72.9;98000;;;;
2021/12/28 11:05:09;;;;;;;32.8;40.6;;;;;;;-2;73;97970;;;;
2021/12/28 11:15:09;;;;;;;32.8;40.6;;;;;;;-1.6;71.1;97980;;;;
2021/12/28 11:25:09;;;;;;;35.7;42.2;;;;;;;-1.8;71.2;97940;;;;
2021/12/28 11:36:09;;;;;;;35.7;42.2;;;;;;;-1.8;71.4;97920;;;;
2021/12/28 11:47:09;;;;;;;35.7;42.2;;;;;;;-1.6;70.5;97910;;;;
2021/12/28 11:57:09;;;;;;;32.9;37.2;;;;;;;-1.4;69.8;97910;;;;
2021/12/28 12:07:09;;;;;;;32.9;37.2;;;;;;;-0.9;68.8;97920;;;;
2021/12/28 12:17:09;;;;;;;32.9;37.2;;;;;;;-1.1;69;97880;;;;
2021/12/28 12:28:09;;;;;;;34.7;42.3;;;;;;;-1;68.4;97890;;;;
2021/12/28 12:39:09;;;;;;;34.7;42.3;;;;;;;-1.1;68.7;97870;;;;
2021/12/28 12:49:09;;;;;;;34.7;42.3;;;;;;;-1.2;69.4;97870;;;;
2021/12/28 12:59:09;;;;;;;36.1;42;;;;;;;-0.8;68.5;97870;;;;
2021/12/28 13:10:09;;;;;;;36.1;42;;;;;;;-1.1;69.1;97860;;;;
2021/12/28 13:20:09;;;;;;;36.1;42;;;;;;;-1.3;69.6;97870;;;;
2021/12/28 13:31:09;;;;;;;33.9;39.6;;;;;;;-1.4;69.6;97870;;;;
2021/12/28 13:42:09;;;;;;;33.9;39.6;;;;;;;-1.7;70.5;97860;;;;
2021/12/28 13:52:09;;;;;;;33.9;39.6;;;;;;;-1.8;71;97850;;;;
2021/12/28 14:03:09;;;;;;;30.3;37.8;;;;;;;-1.9;71.3;97850;;;;
2021/12/28 14:13:09;;;;;;;30.3;37.8;;;;;;;-2;71.7;97820;;;;
2021/12/28 14:24:09;;;;;;;34.4;41.8;;;;;;;-2;71.9;97800;;;;
2021/12/28 14:35:09;;;;;;;34.4;41.8;;;;;;;-2;72.2;97820;;;;
2021/12/28 14:45:09;;;;;;;34.4;41.8;;;;;;;-2;72.5;97820;;;;
2021/12/28 14:55:09;;;;;;;33.5;39.5;;;;;;;-2.2;73.8;97830;;;;
2021/12/28 15:05:10;;;;;;;33.5;39.5;;;;;;;-2.2;74.9;97810;;;;
2021/12/28 15:15:09;;;;;;;33.5;39.5;;;;;;;-2.3;75.5;97810;;;;
2021/12/28 15:26:09;;;;;;;36.7;43.6;;;;;;;-2.5;76.9;97790;;;;
2021/12/28 15:36:12;;;;;;;36.7;43.6;;;;;;;-2.5;77.4;97780;;;;
2021/12/28 15:46:10;;;;;;;36.7;43.6;;;;;;;-2.6;78;97770;;;;
2021/12/28 15:57:09;;;;;;;40.2;48.4;;;;;;;-2.5;78.5;97750;;;;
2021/12/28 16:08:09;;;;;;;40.2;48.4;;;;;;;-2.7;79.2;97750;;;;
2021/12/28 16:19:09;;;;;;;40.2;48.4;;;;;;;-2.8;79.3;97740;;;;
2021/12/28 16:29:09;;;;;;;39.4;46.3;;;;;;;-3;79.9;97730;;;;
2021/12/28 16:40:09;;;;;;;39.4;46.3;;;;;;;-3.2;80.2;97710;;;;
2021/12/28 16:50:09;;;;;;;39.4;46.3;;;;;;;-3.3;80.7;97700;;;;
2021/12/28 17:01:09;;;;;;;39.1;44.6;;;;;;;-3.4;80.6;97680;;;;
2021/12/28 17:11:09;;;;;;;39.1;44.6;;;;;;;-3.6;80.9;97680;;;;
2021/12/28 17:21:09;;;;;;;39.1;44.6;;;;;;;-3.6;80.6;97690;;;;
2021/12/28 17:31:09;;;;;;;37.3;44.3;;;;;;;-3.7;80.6;97690;;;;
2021/12/28 17:42:10;;;;;;;37.3;44.3;;;;;;;-3.9;81.4;97680;;;;
2021/12/28 17:53:09;;;;;;;37.3;42.3;;;;;;;-4;81.5;97680;;;;
2021/12/28 18:03:09;;;;;;;37.3;42.3;;;;;;;-4.1;81.8;97680;;;;
2021/12/28 18:13:09;;;;;;;37.3;42.3;;;;;;;-4.1;81.8;97670;;;;
2021/12/28 18:24:09;;;;;;;40.3;47.7;;;;;;;-4.2;81.6;97650;;;;
2021/12/28 18:34:10;;;;;;;40.3;47.7;;;;;;;-4.3;81.8;97650;;;;
2021/12/28 18:45:09;;;;;;;40.3;47.7;;;;;;;-4.4;82;97650;;;;
2021/12/28 18:55:09;;;;;;;42.8;52.6;;;;;;;-4.4;81.5;97660;;;;
2021/12/28 19:06:09;;;;;;;42.8;52.6;;;;;;;-4.5;81.9;97650;;;;
2021/12/28 19:17:10;;;;;;;42.8;52.6;;;;;;;-4.6;81.5;97650;;;;
2021/12/28 19:28:09;;;;;;;41.7;48.9;;;;;;;-4.8;81.5;97640;;;;
2021/12/28 19:38:09;;;;;;;41.7;48.9;;;;;;;-4.8;81.8;97630;;;;
2021/12/28 19:49:11;;;;;;;41.7;48.9;;;;;;;-4.9;81.9;97620;;;;
2021/12/28 20:00:09;;;;;;;43.5;48.7;;;;;;;-4.9;81.5;97620;;;;
2021/12/28 20:10:09;;;;;;;43.5;48.7;;;;;;;-5;81.8;97600;;;;
2021/12/28 20:21:09;;;;;;;43.5;48.7;;;;;;;-5;81.5;97610;;;;
2021/12/28 20:31:09;;;;;;;57.2;69.3;;;;;;;-5;80.9;97580;;;;
2021/12/28 20:41:11;;;;;;;57.2;69.3;;;;;;;-5.1;80.6;97570;;;;
2021/12/28 20:52:09;;;;;;;54.8;66.4;;;;;;;-5;80.6;97580;;;;
2021/12/28 21:03:09;;;;;;;54.8;66.4;;;;;;;-5.1;79.8;97590;;;;
2021/12/28 21:13:09;;;;;;;54.8;66.4;;;;;;;-5.2;79.4;97570;;;;
2021/12/28 21:23:09;;;;;;;67.2;79.1;;;;;;;-5.2;79.7;97560;;;;
2021/12/28 21:34:09;;;;;;;67.2;79.1;;;;;;;-5.2;80.8;97540;;;;
2021/12/28 21:44:09;;;;;;;67.2;79.1;;;;;;;-4.9;80.9;97550;;;;
2021/12/28 21:54:11;;;;;;;57.8;70;;;;;;;-4.9;80.9;97540;;;;
2021/12/28 22:05:09;;;;;;;57.8;70;;;;;;;-4.8;81.3;97540;;;;
2021/12/28 22:15:09;;;;;;;57.8;70;;;;;;;-4.8;81.5;97510;;;;
2021/12/28 22:26:09;;;;;;;62;71;;;;;;;-4.6;81.4;97480;;;;
2021/12/28 22:36:09;;;;;;;62;71;;;;;;;-4.6;81.2;97480;;;;
2021/12/28 22:46:09;;;;;;;62;71;;;;;;;-4.4;80.9;97490;;;;
2021/12/28 22:56:10;;;;;;;58.6;69.2;;;;;;;-4.2;80.4;97480;;;;
2021/12/28 23:06:10;;;;;;;58.6;69.2;;;;;;;-4.2;80.4;97500;;;;
2021/12/28 23:17:09;;;;;;;58.6;69.2;;;;;;;-4;80.3;97520;;;;
2021/12/28 23:28:11;;;;;;;51.9;61;;;;;;;-4;79.6;97540;;;;
2021/12/28 23:38:09;;;;;;;51.9;61;;;;;;;-3.9;79.7;97530;;;;
2021/12/28 23:48:11;;;;;;;51.9;61;;;;;;;-3.8;79.3;97540;;;;
2021/12/28 23:58:09;;;;;;;107.3;143.6;;;;;;;-4.1;78.8;97540;;;;
